^^
Lisbon, NH - Weather Station Historical Data
Daily Summary for October 10, 2021 Units:  English    Metric   Both
Daily Weekly Monthly Yearly
  High: Low: Average:
Temperature: 53.4 °F 46.8 °F 48.7 °F
Dew Point: 50.6 °F 46.8 °F 48.3 °F
Humidity: 100% 89.8% 98%
Wind Speed: 2mph 0mph 0.2mph
Wind Gust: 3mph - -
Wind- - SE
Pressure: 30.29 in 30.28 in -
Precipitation: 0.00 in    
 
 
Tabular Data for October 10, 2021
Time Temperature Dew Point Pressure Wind Wind Speed Wind Gust Humidity Rainfall Rate (Hourly) solar
00:04 53.4 °F 50.5 °F 30.29 in Calm     89.8% 0.00 in 0 W/m2
00:09 53.2 °F 50.6 °F 30.29 in Calm     90.6% 0.00 in 0 W/m2
00:14 53.1 °F 50.5 °F 30.29 in Calm     91% 0.00 in 0 W/m2
00:19 52.9 °F 50.3 °F 30.29 in Calm     91% 0.00 in 0 W/m2
00:24 52.6 °F 50.3 °F 30.29 in SSW 0.1 mph 1 mph 91.9% 0.00 in 0 W/m2
00:29 52.3 °F 50.2 °F 30.29 in Calm   1 mph 92.6% 0.00 in 0 W/m2
00:34 52.1 °F 50.1 °F 30.29 in NW 0.4 mph 2 mph 93% 0.00 in 0 W/m2
00:39 51.8 °F 50.1 °F 30.29 in NW 0.1 mph 1 mph 93.7% 0.00 in 0 W/m2
00:44 51.6 °F 49.9 °F 30.29 in NW 0.1 mph 1 mph 94% 0.00 in 0 W/m2
00:49 51.3 °F 49.6 °F 30.28 in NW 0.1 mph 1 mph 94% 0.00 in 0 W/m2
00:54 51.1 °F 49.4 °F 30.28 in NW 0.2 mph 1 mph 94% 0.00 in 0 W/m2
00:59 51 °F 49.3 °F 30.28 in NW 0.5 mph 1 mph 94% 0.00 in 0 W/m2
01:04 50.8 °F 49.1 °F 30.28 in NW 0.1 mph 1 mph 93.8% 0.00 in 0 W/m2
01:09 50.7 °F 48.8 °F 30.28 in Calm   1 mph 93.1% 0.00 in 0 W/m2
01:14 50.7 °F 48.8 °F 30.28 in Calm     93.1% 0.00 in 0 W/m2
01:19 50.6 °F 48.7 °F 30.28 in Calm     93.2% 0.00 in 0 W/m2
01:24 50.5 °F 48.8 °F 30.28 in Calm     94% 0.00 in 0 W/m2
01:29 50.4 °F 48.8 °F 30.28 in Calm     94% 0.00 in 0 W/m2
01:34 50.3 °F 48.7 °F 30.28 in West 0.4 mph 2 mph 94% 0.00 in 0 W/m2
01:39 50.2 °F 48.8 °F 30.28 in WSW 0.3 mph 1 mph 94.9% 0.00 in 0 W/m2
01:44 50.1 °F 48.7 °F 30.29 in SW 0.7 mph 2 mph 95% 0.00 in 0 W/m2
01:49 50 °F 48.8 °F 30.29 in SSW 0.1 mph 2 mph 95.6% 0.00 in 0 W/m2
01:54 49.9 °F 48.8 °F 30.29 in SW 0.2 mph 1 mph 96% 0.00 in 0 W/m2
01:59 49.8 °F 48.7 °F 30.29 in SW 0.7 mph 2 mph 96% 0.00 in 0 W/m2
02:04 49.6 °F 48.7 °F 30.29 in SW 0.3 mph 2 mph 96.6% 0.00 in 0 W/m2
02:09 49.5 °F 48.7 °F 30.29 in SW 0.2 mph 1 mph 97% 0.00 in 0 W/m2
02:14 49.5 °F 48.6 °F 30.29 in SW 0.3 mph 2 mph 97% 0.00 in 0 W/m2
02:19 49.4 °F 48.6 °F 30.29 in Calm   1 mph 97% 0.00 in 0 W/m2
02:24 49.2 °F 48.4 °F 30.29 in Calm     97% 0.00 in 0 W/m2
02:29 49.1 °F 48.3 °F 30.29 in Calm     97% 0.00 in 0 W/m2
02:34 48.9 °F 48.4 °F 30.29 in Calm     97.9% 0.00 in 0 W/m2
02:39 48.9 °F 48.4 °F 30.29 in Calm     98% 0.00 in 0 W/m2
02:44 48.8 °F 48.3 °F 30.29 in Calm     98% 0.00 in 0 W/m2
02:49 48.8 °F 48.3 °F 30.29 in Calm     98.3% 0.00 in 0 W/m2
02:54 48.7 °F 48.5 °F 30.29 in Calm     99% 0.00 in 0 W/m2
02:59 48.6 °F 48.3 °F 30.29 in Calm   1 mph 99% 0.00 in 0 W/m2
03:04 48.6 °F 48.3 °F 30.29 in SW 0.2 mph 2 mph 99% 0.00 in 0 W/m2
03:09 48.5 °F 48.2 °F 30.29 in SW 0.3 mph 2 mph 99% 0.00 in 0 W/m2
03:14 48.5 °F 48.2 °F 30.29 in Calm   1 mph 99% 0.00 in 0 W/m2
03:19 48.3 °F 48 °F 30.28 in Calm     99% 0.00 in 0 W/m2
03:24 48.3 °F 48.2 °F 30.28 in SW 0.1 mph 1 mph 99.6% 0.00 in 0 W/m2
03:29 48.2 °F 48.1 °F 30.28 in Calm     99.8% 0.00 in 0 W/m2
03:34 48 °F 48 °F 30.28 in Calm     100% 0.00 in 0 W/m2
03:39 48 °F 48 °F 30.28 in Calm     100% 0.00 in 0 W/m2
03:44 48 °F 48 °F 30.29 in Calm     100% 0.00 in 0 W/m2
03:49 48 °F 48 °F 30.29 in Calm     100% 0.00 in 0 W/m2
03:54 48 °F 48 °F 30.29 in Calm     100% 0.00 in 0 W/m2
03:59 48 °F 48 °F 30.29 in Calm     100% 0.00 in 0 W/m2
04:04 48 °F 48 °F 30.28 in Calm     100% 0.00 in 0 W/m2
04:09 47.9 °F 47.9 °F 30.28 in Calm     100% 0.00 in 0 W/m2
04:14 47.9 °F 47.9 °F 30.28 in Calm     100% 0.00 in 0 W/m2
04:19 47.9 °F 47.9 °F 30.28 in Calm     100% 0.00 in 0 W/m2
04:24 47.9 °F 47.9 °F 30.28 in Calm     100% 0.00 in 0 W/m2
04:29 47.9 °F 47.9 °F 30.28 in Calm     100% 0.00 in 0 W/m2
04:34 47.7 °F 47.7 °F 30.28 in Calm     100% 0.00 in 0 W/m2
04:39 47.7 °F 47.7 °F 30.28 in Calm     100% 0.00 in 0 W/m2
04:44 47.8 °F 47.8 °F 30.28 in Calm     100% 0.00 in 0 W/m2
04:49 47.9 °F 47.9 °F 30.28 in South 0.2 mph 1 mph 100% 0.00 in 0 W/m2
04:54 47.9 °F 47.9 °F 30.28 in Calm   1 mph 100% 0.00 in 0 W/m2
04:59 47.9 °F 47.9 °F 30.28 in ENE 0.1 mph 1 mph 100% 0.00 in 0 W/m2
05:04 47.7 °F 47.7 °F 30.28 in Calm     100% 0.00 in 0 W/m2
05:09 47.7 °F 47.7 °F 30.28 in Calm     100% 0.00 in 0 W/m2
05:14 47.6 °F 47.6 °F 30.28 in Calm     100% 0.00 in 0 W/m2
05:19 47.6 °F 47.6 °F 30.28 in NE 0.2 mph 1 mph 100% 0.00 in 0 W/m2
05:24 47.6 °F 47.6 °F 30.28 in Calm     100% 0.00 in 0 W/m2
05:29 47.4 °F 47.4 °F 30.28 in Calm     100% 0.00 in 0 W/m2
05:34 47.4 °F 47.4 °F 30.28 in Calm     100% 0.00 in 0 W/m2
05:39 47.4 °F 47.4 °F 30.28 in Calm     100% 0.00 in 0 W/m2
05:44 47.3 °F 47.3 °F 30.28 in Calm     100% 0.00 in 0 W/m2
05:49 47.3 °F 47.3 °F 30.28 in Calm     100% 0.00 in 0 W/m2
05:54 47.2 °F 47.2 °F 30.28 in Calm     100% 0.00 in 0 W/m2
05:59 47.1 °F 47.1 °F 30.28 in Calm     100% 0.00 in 0 W/m2
06:04 47 °F 47 °F 30.28 in Calm     100% 0.00 in 0 W/m2
06:09 47 °F 47 °F 30.28 in Calm     100% 0.00 in 0 W/m2
06:14 47 °F 47 °F 30.28 in Calm     100% 0.00 in 0 W/m2
06:19 47 °F 47 °F 30.28 in Calm   1 mph 100% 0.00 in 0 W/m2
06:24 46.9 °F 46.9 °F 30.28 in Calm     100% 0.00 in 0 W/m2
06:29 46.8 °F 46.8 °F 30.28 in Calm     100% 0.00 in 0 W/m2
06:34 46.8 °F 46.8 °F 30.28 in Calm     100% 0.00 in 0 W/m2
06:39 46.9 °F 46.9 °F 30.28 in Calm     100% 0.00 in 0 W/m2
06:44 46.9 °F 46.9 °F 30.28 in Calm     100% 0.00 in 0 W/m2
06:49 46.8 °F 46.8 °F 30.28 in Calm     100% 0.00 in 0 W/m2
06:54 46.8 °F 46.8 °F 30.28 in NNE 0.2 mph 1 mph 100% 0.00 in 0 W/m2
06:59 46.8 °F 46.8 °F 30.28 in NNE 0.1 mph 1 mph 100% 0.00 in 0 W/m2
07:04 46.8 °F 46.8 °F 30.28 in NNE 0.2 mph 1 mph 100% 0.00 in 5 W/m2
07:09 46.8 °F 46.8 °F 30.28 in Calm     100% 0.00 in 7 W/m2
07:14 46.8 °F 46.8 °F 30.29 in Calm     100% 0.00 in 11 W/m2
07:19 46.8 °F 46.8 °F 30.29 in Calm     100% 0.00 in 14 W/m2
07:24 46.8 °F 46.8 °F 30.29 in Calm     100% 0.00 in 18 W/m2
07:29 46.8 °F 46.8 °F 30.29 in Calm     100% 0.00 in 21 W/m2
07:34 46.8 °F 46.8 °F 30.29 in NNE 0.1 mph 1 mph 100% 0.00 in 21 W/m2
07:39 47 °F 47 °F 30.29 in NNE 0.1 mph 1 mph 100% 0.00 in 25 W/m2
07:44 47 °F 47 °F 30.29 in NNE 0.4 mph 2 mph 100% 0.00 in 30 W/m2
07:49 47.1 °F 47.1 °F 30.29 in Calm   2 mph 100% 0.00 in 30 W/m2
07:54 47.1 °F 47.1 °F 30.29 in Calm     100% 0.00 in 32 W/m2
07:59 47.3 °F 47.3 °F 30.29 in Calm     100% 0.00 in 42 W/m2
08:04 47.3 °F 47.3 °F 30.29 in NNE 0.2 mph 1 mph 100% 0.00 in 46 W/m2
08:09 47.4 °F 47.4 °F 30.29 in NNE 0.8 mph 2 mph 100% 0.00 in 46 W/m2
08:14 47.5 °F 47.5 °F 30.29 in NE 0.1 mph 2 mph 100% 0.00 in 49 W/m2
08:19 47.7 °F 47.7 °F 30.29 in NE 0.7 mph 2 mph 100% 0.00 in 56 W/m2
08:24 47.8 °F 47.8 °F 30.29 in NE 0.8 mph 2 mph 100% 0.00 in 63 W/m2
08:29 48 °F 48 °F 30.29 in NE 1.3 mph 2 mph 100% 0.00 in 65 W/m2
08:34 48.1 °F 48.1 °F 30.29 in ENE 0.9 mph 2 mph 100% 0.00 in 65 W/m2
08:39 48.2 °F 48.2 °F 30.29 in ENE 0.8 mph 2 mph 100% 0.00 in 58 W/m2
08:44 48.2 °F 48.2 °F 30.29 in ENE 0.5 mph 2 mph 100% 0.00 in 55 W/m2
08:49 48.4 °F 48.4 °F 30.29 in ENE 1 mph 2 mph 100% 0.00 in 56 W/m2
08:54 48.5 °F 48.5 °F 30.29 in ENE 0.4 mph 2 mph 100% 0.00 in 63 W/m2
08:59 48.6 °F 48.6 °F 30.29 in NE 0.7 mph 2 mph 100% 0.00 in 72 W/m2
09:04 48.8 °F 48.8 °F 30.29 in NE 0.7 mph 2 mph 100% 0.00 in 88 W/m2
09:09 49 °F 49 °F 30.29 in NE 0.2 mph 2 mph 100% 0.00 in 102 W/m2
09:14 49.1 °F 49.1 °F 30.29 in NE 0.1 mph 1 mph 100% 0.00 in 109 W/m2
09:19 49.2 °F 49.2 °F 30.29 in NE 0.5 mph 2 mph 100% 0.00 in 111 W/m2
09:24 49.4 °F 49.4 °F 30.29 in Calm   1 mph 100% 0.00 in 111 W/m2
09:29 49.6 °F 49.6 °F 30.29 in NE 0.4 mph 2 mph 100% 0.00 in 113 W/m2
09:34 49.9 °F 49.9 °F 30.29 in NE 0.1 mph 1 mph 100% 0.00 in 121 W/m2
09:39 50.1 °F 50.1 °F 30.29 in NE 0.9 mph 2 mph 100% 0.00 in 135 W/m2
09:44 50.4 °F 50.4 °F 30.29 in NE 1.2 mph 2 mph 100% 0.00 in 148 W/m2
09:49 50.6 °F 50.4 °F 30.29 in ENE 1.5 mph 3 mph 99.4% 0.00 in 162 W/m2
09:54 50.9 °F 50.6 °F 30.29 in NE 1.3 mph 3 mph 98.8% 0.00 in 172 W/m2
09:59 51.1 °F 50.4 °F 30.29 in ENE 0.7 mph 2 mph 97.6% 0.00 in 181 W/m2
10:04 51.3 °F 50.4 °F 30.29 in ENE 0.9 mph 2 mph 96.7% 0.00 in 183 W/m2
10:09 51.4 °F 50.3 °F 30.29 in ENE 0.7 mph 2 mph 96% 0.00 in 183 W/m2
10:10 51.6 °F 50.5 °F 30.29 in ENE 2 mph 2 mph 96% 0.00 in 183 W/m2
Lisbon, New Hampshire, USA
Compliments of Weather Underground - 3 mb